sensor_id;sensor_type;location;lat;lon;timestamp;P1;durP1;ratioP1;P2;durP2;ratioP2
62058;SDS011;48017;51.064;7.014;2022-08-30T00:02:32;5.88;;;2.28;;
62058;SDS011;48017;51.064;7.014;2022-08-30T00:04:58;5.72;;;1.92;;
62058;SDS011;48017;51.064;7.014;2022-08-30T00:07:25;5.40;;;1.90;;
62058;SDS011;48017;51.064;7.014;2022-08-30T00:09:51;6.25;;;1.92;;
62058;SDS011;48017;51.064;7.014;2022-08-30T00:12:16;7.43;;;2.33;;
62058;SDS011;48017;51.064;7.014;2022-08-30T00:14:42;7.72;;;2.10;;
62058;SDS011;48017;51.064;7.014;2022-08-30T00:17:07;7.45;;;2.20;;
62058;SDS011;48017;51.064;7.014;2022-08-30T00:19:32;5.05;;;2.10;;
62058;SDS011;48017;51.064;7.014;2022-08-30T00:21:58;3.47;;;1.80;;
62058;SDS011;48017;51.064;7.014;2022-08-30T00:24:23;5.78;;;1.90;;
62058;SDS011;48017;51.064;7.014;2022-08-30T00:26:49;5.93;;;2.20;;
62058;SDS011;48017;51.064;7.014;2022-08-30T00:29:14;4.85;;;2.47;;
62058;SDS011;48017;51.064;7.014;2022-08-30T00:31:39;10.18;;;2.42;;
62058;SDS011;48017;51.064;7.014;2022-08-30T00:34:05;9.13;;;2.05;;
62058;SDS011;48017;51.064;7.014;2022-08-30T00:36:31;4.68;;;1.95;;
62058;SDS011;48017;51.064;7.014;2022-08-30T00:38:56;5.25;;;2.20;;
62058;SDS011;48017;51.064;7.014;2022-08-30T00:41:22;3.80;;;2.15;;
62058;SDS011;48017;51.064;7.014;2022-08-30T00:43:47;5.38;;;2.28;;
62058;SDS011;48017;51.064;7.014;2022-08-30T00:46:12;4.45;;;2.10;;
62058;SDS011;48017;51.064;7.014;2022-08-30T00:48:39;4.97;;;2.00;;
62058;SDS011;48017;51.064;7.014;2022-08-30T00:51:09;5.30;;;1.92;;
62058;SDS011;48017;51.064;7.014;2022-08-30T00:53:39;6.70;;;2.20;;
62058;SDS011;48017;51.064;7.014;2022-08-30T00:56:10;4.80;;;2.28;;
62058;SDS011;48017;51.064;7.014;2022-08-30T00:58:37;6.45;;;2.30;;
62058;SDS011;48017;51.064;7.014;2022-08-30T01:01:06;5.13;;;2.20;;
62058;SDS011;48017;51.064;7.014;2022-08-30T01:03:32;5.00;;;2.30;;
62058;SDS011;48017;51.064;7.014;2022-08-30T01:05:59;5.63;;;2.53;;
62058;SDS011;48017;51.064;7.014;2022-08-30T01:08:26;7.88;;;2.10;;
62058;SDS011;48017;51.064;7.014;2022-08-30T01:10:52;4.88;;;2.30;;
62058;SDS011;48017;51.064;7.014;2022-08-30T01:13:18;5.95;;;2.08;;
62058;SDS011;48017;51.064;7.014;2022-08-30T01:15:45;3.80;;;2.10;;
62058;SDS011;48017;51.064;7.014;2022-08-30T01:18:12;4.65;;;2.03;;
62058;SDS011;48017;51.064;7.014;2022-08-30T01:20:48;4.68;;;2.10;;
62058;SDS011;48017;51.064;7.014;2022-08-30T01:23:22;6.53;;;2.00;;
62058;SDS011;48017;51.064;7.014;2022-08-30T01:25:49;5.82;;;2.15;;
62058;SDS011;48017;51.064;7.014;2022-08-30T01:28:22;4.07;;;1.90;;
62058;SDS011;48017;51.064;7.014;2022-08-30T01:30:50;4.05;;;2.00;;
62058;SDS011;48017;51.064;7.014;2022-08-30T01:33:15;3.65;;;2.10;;
62058;SDS011;48017;51.064;7.014;2022-08-30T01:38:13;3.78;;;2.05;;
62058;SDS011;48017;51.064;7.014;2022-08-30T01:40:41;8.20;;;2.10;;
62058;SDS011;48017;51.064;7.014;2022-08-30T01:43:06;4.45;;;2.03;;
62058;SDS011;48017;51.064;7.014;2022-08-30T01:45:32;4.70;;;2.17;;
62058;SDS011;48017;51.064;7.014;2022-08-30T01:47:57;8.40;;;2.10;;
62058;SDS011;48017;51.064;7.014;2022-08-30T01:50:23;7.97;;;1.98;;
62058;SDS011;48017;51.064;7.014;2022-08-30T01:52:48;5.88;;;2.10;;
62058;SDS011;48017;51.064;7.014;2022-08-30T01:55:13;5.18;;;1.98;;
62058;SDS011;48017;51.064;7.014;2022-08-30T01:57:39;5.80;;;2.10;;
62058;SDS011;48017;51.064;7.014;2022-08-30T02:00:05;7.18;;;2.50;;
62058;SDS011;48017;51.064;7.014;2022-08-30T02:02:33;5.47;;;2.00;;
62058;SDS011;48017;51.064;7.014;2022-08-30T02:04:58;5.82;;;2.00;;
62058;SDS011;48017;51.064;7.014;2022-08-30T02:07:24;5.57;;;2.33;;
62058;SDS011;48017;51.064;7.014;2022-08-30T02:09:50;6.05;;;2.25;;
62058;SDS011;48017;51.064;7.014;2022-08-30T02:12:16;4.72;;;2.28;;
62058;SDS011;48017;51.064;7.014;2022-08-30T02:14:42;6.75;;;2.30;;
62058;SDS011;48017;51.064;7.014;2022-08-30T02:17:08;4.07;;;2.08;;
62058;SDS011;48017;51.064;7.014;2022-08-30T02:19:35;5.73;;;2.17;;
62058;SDS011;48017;51.064;7.014;2022-08-30T02:22:00;4.80;;;2.00;;
62058;SDS011;48017;51.064;7.014;2022-08-30T02:24:26;4.30;;;2.20;;
62058;SDS011;48017;51.064;7.014;2022-08-30T02:26:52;4.85;;;2.08;;
62058;SDS011;48017;51.064;7.014;2022-08-30T02:29:21;6.57;;;2.22;;
62058;SDS011;48017;51.064;7.014;2022-08-30T02:31:47;3.65;;;2.00;;
62058;SDS011;48017;51.064;7.014;2022-08-30T02:34:13;6.72;;;2.08;;
62058;SDS011;48017;51.064;7.014;2022-08-30T02:36:39;5.20;;;2.35;;
62058;SDS011;48017;51.064;7.014;2022-08-30T02:39:06;4.78;;;2.10;;
62058;SDS011;48017;51.064;7.014;2022-08-30T02:41:32;6.65;;;2.17;;
62058;SDS011;48017;51.064;7.014;2022-08-30T02:43:57;4.70;;;2.22;;
62058;SDS011;48017;51.064;7.014;2022-08-30T02:46:24;4.53;;;2.22;;
62058;SDS011;48017;51.064;7.014;2022-08-30T02:48:50;4.63;;;2.20;;
62058;SDS011;48017;51.064;7.014;2022-08-30T02:51:16;4.95;;;2.60;;
62058;SDS011;48017;51.064;7.014;2022-08-30T02:53:42;6.43;;;2.50;;
62058;SDS011;48017;51.064;7.014;2022-08-30T02:56:08;5.50;;;2.38;;
62058;SDS011;48017;51.064;7.014;2022-08-30T02:58:35;4.72;;;2.10;;
62058;SDS011;48017;51.064;7.014;2022-08-30T03:01:00;5.35;;;2.28;;
62058;SDS011;48017;51.064;7.014;2022-08-30T03:03:26;4.57;;;2.53;;
62058;SDS011;48017;51.064;7.014;2022-08-30T03:05:52;5.25;;;2.47;;
62058;SDS011;48017;51.064;7.014;2022-08-30T03:08:17;4.93;;;2.20;;
62058;SDS011;48017;51.064;7.014;2022-08-30T03:10:43;5.20;;;2.10;;
62058;SDS011;48017;51.064;7.014;2022-08-30T03:13:08;5.93;;;2.90;;
62058;SDS011;48017;51.064;7.014;2022-08-30T03:15:34;6.65;;;2.72;;
62058;SDS011;48017;51.064;7.014;2022-08-30T03:18:01;4.93;;;2.40;;
62058;SDS011;48017;51.064;7.014;2022-08-30T03:20:26;7.60;;;2.92;;
62058;SDS011;48017;51.064;7.014;2022-08-30T03:22:52;4.88;;;2.30;;
62058;SDS011;48017;51.064;7.014;2022-08-30T03:25:17;3.88;;;2.28;;
62058;SDS011;48017;51.064;7.014;2022-08-30T03:27:44;5.10;;;2.22;;
62058;SDS011;48017;51.064;7.014;2022-08-30T03:30:10;5.57;;;2.10;;
62058;SDS011;48017;51.064;7.014;2022-08-30T03:32:36;5.40;;;2.30;;
62058;SDS011;48017;51.064;7.014;2022-08-30T03:35:02;5.65;;;2.10;;
62058;SDS011;48017;51.064;7.014;2022-08-30T03:37:27;7.03;;;2.30;;
62058;SDS011;48017;51.064;7.014;2022-08-30T03:39:56;4.85;;;2.35;;
62058;SDS011;48017;51.064;7.014;2022-08-30T03:42:21;3.53;;;2.10;;
62058;SDS011;48017;51.064;7.014;2022-08-30T03:44:48;5.43;;;2.55;;
62058;SDS011;48017;51.064;7.014;2022-08-30T03:47:13;11.05;;;4.90;;
62058;SDS011;48017;51.064;7.014;2022-08-30T03:49:38;7.30;;;2.20;;
62058;SDS011;48017;51.064;7.014;2022-08-30T03:52:04;5.53;;;2.22;;
62058;SDS011;48017;51.064;7.014;2022-08-30T03:54:30;5.53;;;2.45;;
62058;SDS011;48017;51.064;7.014;2022-08-30T03:56:55;6.75;;;2.33;;
62058;SDS011;48017;51.064;7.014;2022-08-30T03:59:21;5.10;;;2.30;;
62058;SDS011;48017;51.064;7.014;2022-08-30T04:01:46;6.57;;;3.45;;
62058;SDS011;48017;51.064;7.014;2022-08-30T04:04:12;11.05;;;5.65;;
62058;SDS011;48017;51.064;7.014;2022-08-30T04:06:38;16.60;;;7.15;;
62058;SDS011;48017;51.064;7.014;2022-08-30T04:09:03;9.25;;;4.50;;
62058;SDS011;48017;51.064;7.014;2022-08-30T04:11:29;7.53;;;2.80;;
62058;SDS011;48017;51.064;7.014;2022-08-30T04:13:55;5.85;;;2.33;;
62058;SDS011;48017;51.064;7.014;2022-08-30T04:16:21;4.07;;;2.40;;
62058;SDS011;48017;51.064;7.014;2022-08-30T04:18:47;6.22;;;2.67;;
62058;SDS011;48017;51.064;7.014;2022-08-30T04:21:13;4.28;;;2.10;;
62058;SDS011;48017;51.064;7.014;2022-08-30T04:23:40;6.07;;;2.50;;
62058;SDS011;48017;51.064;7.014;2022-08-30T04:26:07;5.67;;;2.50;;
62058;SDS011;48017;51.064;7.014;2022-08-30T04:28:32;6.57;;;2.53;;
62058;SDS011;48017;51.064;7.014;2022-08-30T04:30:59;5.57;;;2.30;;
62058;SDS011;48017;51.064;7.014;2022-08-30T04:33:25;8.23;;;2.70;;
62058;SDS011;48017;51.064;7.014;2022-08-30T04:35:51;7.00;;;2.30;;
62058;SDS011;48017;51.064;7.014;2022-08-30T04:38:16;7.18;;;2.33;;
62058;SDS011;48017;51.064;7.014;2022-08-30T04:40:43;5.47;;;2.25;;
62058;SDS011;48017;51.064;7.014;2022-08-30T04:43:09;7.60;;;2.20;;
62058;SDS011;48017;51.064;7.014;2022-08-30T04:45:37;7.35;;;2.40;;
62058;SDS011;48017;51.064;7.014;2022-08-30T04:48:04;18.02;;;10.40;;
62058;SDS011;48017;51.064;7.014;2022-08-30T04:50:30;20.73;;;9.38;;
62058;SDS011;48017;51.064;7.014;2022-08-30T04:52:56;19.08;;;8.13;;
62058;SDS011;48017;51.064;7.014;2022-08-30T04:55:22;8.80;;;3.15;;
62058;SDS011;48017;51.064;7.014;2022-08-30T04:57:49;4.90;;;2.30;;
62058;SDS011;48017;51.064;7.014;2022-08-30T05:00:16;5.00;;;2.40;;
62058;SDS011;48017;51.064;7.014;2022-08-30T05:02:44;4.47;;;2.50;;
62058;SDS011;48017;51.064;7.014;2022-08-30T05:05:10;6.47;;;2.45;;
62058;SDS011;48017;51.064;7.014;2022-08-30T05:07:55;5.93;;;2.50;;
62058;SDS011;48017;51.064;7.014;2022-08-30T05:10:21;15.48;;;6.57;;
62058;SDS011;48017;51.064;7.014;2022-08-30T05:12:47;20.35;;;8.27;;
62058;SDS011;48017;51.064;7.014;2022-08-30T05:15:12;24.42;;;9.35;;
62058;SDS011;48017;51.064;7.014;2022-08-30T05:17:38;10.73;;;3.30;;
62058;SDS011;48017;51.064;7.014;2022-08-30T05:20:05;7.32;;;2.83;;
62058;SDS011;48017;51.064;7.014;2022-08-30T05:22:34;6.57;;;2.53;;
62058;SDS011;48017;51.064;7.014;2022-08-30T05:25:04;9.40;;;2.85;;
62058;SDS011;48017;51.064;7.014;2022-08-30T05:27:30;4.65;;;2.55;;
62058;SDS011;48017;51.064;7.014;2022-08-30T05:29:55;5.40;;;2.50;;
62058;SDS011;48017;51.064;7.014;2022-08-30T05:32:21;3.78;;;2.20;;
62058;SDS011;48017;51.064;7.014;2022-08-30T05:34:46;5.85;;;2.50;;
62058;SDS011;48017;51.064;7.014;2022-08-30T05:37:12;7.68;;;2.80;;
62058;SDS011;48017;51.064;7.014;2022-08-30T05:39:37;6.30;;;2.70;;
62058;SDS011;48017;51.064;7.014;2022-08-30T05:42:02;5.97;;;2.42;;
62058;SDS011;48017;51.064;7.014;2022-08-30T05:44:28;6.30;;;2.60;;
62058;SDS011;48017;51.064;7.014;2022-08-30T05:46:53;7.75;;;2.60;;
62058;SDS011;48017;51.064;7.014;2022-08-30T05:49:19;8.23;;;2.53;;
62058;SDS011;48017;51.064;7.014;2022-08-30T05:51:44;4.75;;;2.83;;
62058;SDS011;48017;51.064;7.014;2022-08-30T05:54:13;5.40;;;2.72;;
62058;SDS011;48017;51.064;7.014;2022-08-30T05:56:40;5.97;;;2.40;;
62058;SDS011;48017;51.064;7.014;2022-08-30T05:59:07;6.72;;;2.70;;
62058;SDS011;48017;51.064;7.014;2022-08-30T06:01:34;7.85;;;2.53;;
62058;SDS011;48017;51.064;7.014;2022-08-30T06:04:04;6.70;;;2.42;;
62058;SDS011;48017;51.064;7.014;2022-08-30T06:06:32;12.77;;;2.50;;
62058;SDS011;48017;51.064;7.014;2022-08-30T06:08:59;8.23;;;2.70;;
62058;SDS011;48017;51.064;7.014;2022-08-30T06:11:25;4.90;;;2.20;;
62058;SDS011;48017;51.064;7.014;2022-08-30T06:13:51;5.30;;;2.35;;
62058;SDS011;48017;51.064;7.014;2022-08-30T06:16:19;5.60;;;2.35;;
62058;SDS011;48017;51.064;7.014;2022-08-30T06:18:46;5.90;;;2.50;;
62058;SDS011;48017;51.064;7.014;2022-08-30T06:21:19;6.15;;;2.60;;
62058;SDS011;48017;51.064;7.014;2022-08-30T06:23:49;5.47;;;2.42;;
62058;SDS011;48017;51.064;7.014;2022-08-30T06:26:15;6.22;;;2.50;;
62058;SDS011;48017;51.064;7.014;2022-08-30T06:28:41;4.97;;;2.38;;
62058;SDS011;48017;51.064;7.014;2022-08-30T06:31:07;8.70;;;2.78;;
62058;SDS011;48017;51.064;7.014;2022-08-30T06:33:34;4.93;;;2.40;;
62058;SDS011;48017;51.064;7.014;2022-08-30T06:36:03;5.60;;;2.17;;
62058;SDS011;48017;51.064;7.014;2022-08-30T06:38:30;7.18;;;2.45;;
62058;SDS011;48017;51.064;7.014;2022-08-30T06:40:56;5.38;;;2.58;;
62058;SDS011;48017;51.064;7.014;2022-08-30T06:43:21;6.43;;;2.50;;
62058;SDS011;48017;51.064;7.014;2022-08-30T06:45:47;7.30;;;2.47;;
62058;SDS011;48017;51.064;7.014;2022-08-30T06:48:14;6.63;;;2.47;;
62058;SDS011;48017;51.064;7.014;2022-08-30T06:50:39;7.05;;;2.40;;
62058;SDS011;48017;51.064;7.014;2022-08-30T06:53:06;4.77;;;2.33;;
62058;SDS011;48017;51.064;7.014;2022-08-30T06:55:32;7.85;;;2.20;;
62058;SDS011;48017;51.064;7.014;2022-08-30T06:57:58;6.60;;;2.70;;
62058;SDS011;48017;51.064;7.014;2022-08-30T07:00:24;8.95;;;2.20;;
62058;SDS011;48017;51.064;7.014;2022-08-30T07:02:50;6.13;;;2.30;;
62058;SDS011;48017;51.064;7.014;2022-08-30T07:05:15;5.25;;;2.28;;
62058;SDS011;48017;51.064;7.014;2022-08-30T07:07:42;5.83;;;2.40;;
62058;SDS011;48017;51.064;7.014;2022-08-30T07:10:07;9.63;;;2.50;;
62058;SDS011;48017;51.064;7.014;2022-08-30T07:12:34;4.10;;;2.10;;
62058;SDS011;48017;51.064;7.014;2022-08-30T07:15:01;6.10;;;2.30;;
62058;SDS011;48017;51.064;7.014;2022-08-30T07:17:28;5.32;;;2.40;;
62058;SDS011;48017;51.064;7.014;2022-08-30T07:20:13;5.15;;;2.30;;
62058;SDS011;48017;51.064;7.014;2022-08-30T07:22:38;6.40;;;2.15;;
62058;SDS011;48017;51.064;7.014;2022-08-30T07:25:04;6.00;;;2.33;;
62058;SDS011;48017;51.064;7.014;2022-08-30T07:27:29;6.88;;;2.10;;
62058;SDS011;48017;51.064;7.014;2022-08-30T07:29:55;6.15;;;2.28;;
62058;SDS011;48017;51.064;7.014;2022-08-30T07:32:22;6.75;;;2.28;;
62058;SDS011;48017;51.064;7.014;2022-08-30T07:34:48;8.43;;;2.45;;
62058;SDS011;48017;51.064;7.014;2022-08-30T07:37:13;7.53;;;2.20;;
62058;SDS011;48017;51.064;7.014;2022-08-30T07:39:39;5.25;;;2.10;;
62058;SDS011;48017;51.064;7.014;2022-08-30T07:42:04;5.18;;;2.10;;
62058;SDS011;48017;51.064;7.014;2022-08-30T07:44:29;6.72;;;2.50;;
62058;SDS011;48017;51.064;7.014;2022-08-30T07:46:56;6.88;;;2.50;;
62058;SDS011;48017;51.064;7.014;2022-08-30T07:49:21;8.40;;;2.20;;
62058;SDS011;48017;51.064;7.014;2022-08-30T07:51:47;4.40;;;2.20;;
62058;SDS011;48017;51.064;7.014;2022-08-30T07:54:13;4.93;;;2.17;;
62058;SDS011;48017;51.064;7.014;2022-08-30T07:56:38;5.18;;;2.28;;
62058;SDS011;48017;51.064;7.014;2022-08-30T07:59:03;5.85;;;2.25;;
62058;SDS011;48017;51.064;7.014;2022-08-30T08:01:29;6.70;;;2.17;;
62058;SDS011;48017;51.064;7.014;2022-08-30T08:03:54;4.10;;;2.10;;
62058;SDS011;48017;51.064;7.014;2022-08-30T08:06:20;5.88;;;2.00;;
62058;SDS011;48017;51.064;7.014;2022-08-30T08:08:47;5.53;;;2.13;;
62058;SDS011;48017;51.064;7.014;2022-08-30T08:11:15;5.07;;;1.93;;
62058;SDS011;48017;51.064;7.014;2022-08-30T08:13:45;7.72;;;2.30;;
62058;SDS011;48017;51.064;7.014;2022-08-30T08:16:12;4.32;;;1.98;;
62058;SDS011;48017;51.064;7.014;2022-08-30T08:18:38;4.53;;;2.15;;
62058;SDS011;48017;51.064;7.014;2022-08-30T08:21:03;5.03;;;2.40;;
62058;SDS011;48017;51.064;7.014;2022-08-30T08:23:29;8.00;;;2.25;;
62058;SDS011;48017;51.064;7.014;2022-08-30T08:25:55;6.65;;;2.20;;
62058;SDS011;48017;51.064;7.014;2022-08-30T08:28:20;7.75;;;2.00;;
62058;SDS011;48017;51.064;7.014;2022-08-30T08:30:46;8.35;;;2.20;;
62058;SDS011;48017;51.064;7.014;2022-08-30T08:33:12;4.50;;;1.85;;
62058;SDS011;48017;51.064;7.014;2022-08-30T08:35:38;4.10;;;2.10;;
62058;SDS011;48017;51.064;7.014;2022-08-30T08:38:04;6.05;;;2.03;;
62058;SDS011;48017;51.064;7.014;2022-08-30T08:40:31;7.63;;;2.10;;
62058;SDS011;48017;51.064;7.014;2022-08-30T08:43:04;4.53;;;1.90;;
62058;SDS011;48017;51.064;7.014;2022-08-30T08:50:38;7.13;;;1.90;;
62058;SDS011;48017;51.064;7.014;2022-08-30T08:53:25;5.85;;;2.00;;
62058;SDS011;48017;51.064;7.014;2022-08-30T08:56:02;6.35;;;2.20;;
62058;SDS011;48017;51.064;7.014;2022-08-30T08:58:33;4.75;;;2.00;;
62058;SDS011;48017;51.064;7.014;2022-08-30T09:01:08;3.80;;;2.05;;
62058;SDS011;48017;51.064;7.014;2022-08-30T09:03:36;4.65;;;2.10;;
62058;SDS011;48017;51.064;7.014;2022-08-30T09:06:08;7.53;;;2.22;;
62058;SDS011;48017;51.064;7.014;2022-08-30T09:08:46;5.32;;;2.38;;
62058;SDS011;48017;51.064;7.014;2022-08-30T09:11:13;4.32;;;1.90;;
62058;SDS011;48017;51.064;7.014;2022-08-30T09:22:04;6.63;;;1.98;;
62058;SDS011;48017;51.064;7.014;2022-08-30T09:24:43;7.60;;;2.07;;
62058;SDS011;48017;51.064;7.014;2022-08-30T09:27:30;5.43;;;1.80;;
62058;SDS011;48017;51.064;7.014;2022-08-30T09:30:06;4.75;;;2.10;;
62058;SDS011;48017;51.064;7.014;2022-08-30T09:32:36;4.65;;;2.03;;
62058;SDS011;48017;51.064;7.014;2022-08-30T09:35:05;4.60;;;2.05;;
62058;SDS011;48017;51.064;7.014;2022-08-30T09:37:36;5.07;;;2.05;;
62058;SDS011;48017;51.064;7.014;2022-08-30T09:40:08;4.13;;;1.80;;
62058;SDS011;48017;51.064;7.014;2022-08-30T09:42:37;3.25;;;1.92;;
62058;SDS011;48017;51.064;7.014;2022-08-30T09:45:03;7.47;;;2.35;;
62058;SDS011;48017;51.064;7.014;2022-08-30T09:47:35;6.32;;;2.10;;
62058;SDS011;48017;51.064;7.014;2022-08-30T09:50:04;6.53;;;2.00;;
62058;SDS011;48017;51.064;7.014;2022-08-30T09:52:38;5.57;;;2.00;;
62058;SDS011;48017;51.064;7.014;2022-08-30T10:00:32;5.45;;;1.98;;
62058;SDS011;48017;51.064;7.014;2022-08-30T10:14:33;7.55;;;1.98;;
62058;SDS011;48017;51.064;7.014;2022-08-30T10:22:22;5.35;;;2.63;;
62058;SDS011;48017;51.064;7.014;2022-08-30T10:25:15;4.57;;;1.70;;
62058;SDS011;48017;51.064;7.014;2022-08-30T10:27:46;8.98;;;2.70;;
62058;SDS011;48017;51.064;7.014;2022-08-30T10:30:18;12.70;;;5.13;;
62058;SDS011;48017;51.064;7.014;2022-08-30T10:38:01;6.70;;;2.80;;
62058;SDS011;48017;51.064;7.014;2022-08-30T10:40:50;4.85;;;2.25;;
62058;SDS011;48017;51.064;7.014;2022-08-30T10:46:49;5.53;;;1.98;;
62058;SDS011;48017;51.064;7.014;2022-08-30T10:49:24;5.13;;;2.20;;
62058;SDS011;48017;51.064;7.014;2022-08-30T10:52:22;8.02;;;2.20;;
62058;SDS011;48017;51.064;7.014;2022-08-30T10:57:17;10.10;;;2.25;;
62058;SDS011;48017;51.064;7.014;2022-08-30T11:00:05;5.75;;;1.80;;
62058;SDS011;48017;51.064;7.014;2022-08-30T11:11:11;5.15;;;2.08;;
62058;SDS011;48017;51.064;7.014;2022-08-30T11:13:23;7.20;;;2.13;;
62058;SDS011;48017;51.064;7.014;2022-08-30T11:15:59;6.47;;;2.00;;
62058;SDS011;48017;51.064;7.014;2022-08-30T11:18:29;6.15;;;2.08;;
62058;SDS011;48017;51.064;7.014;2022-08-30T11:44:13;6.63;;;2.72;;
62058;SDS011;48017;51.064;7.014;2022-08-30T11:46:18;4.85;;;2.35;;
62058;SDS011;48017;51.064;7.014;2022-08-30T11:48:53;13.30;;;2.40;;
62058;SDS011;48017;51.064;7.014;2022-08-30T12:02:54;4.85;;;2.25;;
62058;SDS011;48017;51.064;7.014;2022-08-30T12:18:46;7.22;;;1.98;;
62058;SDS011;48017;51.064;7.014;2022-08-30T12:21:22;7.30;;;2.10;;
62058;SDS011;48017;51.064;7.014;2022-08-30T12:23:56;6.57;;;2.30;;
62058;SDS011;48017;51.064;7.014;2022-08-30T12:26:44;9.32;;;2.40;;
62058;SDS011;48017;51.064;7.014;2022-08-30T12:29:16;6.07;;;2.20;;
62058;SDS011;48017;51.064;7.014;2022-08-30T12:31:46;6.28;;;2.33;;
62058;SDS011;48017;51.064;7.014;2022-08-30T12:37:07;9.68;;;3.97;;
62058;SDS011;48017;51.064;7.014;2022-08-30T12:39:43;10.55;;;3.42;;
62058;SDS011;48017;51.064;7.014;2022-08-30T12:42:28;7.38;;;2.33;;
62058;SDS011;48017;51.064;7.014;2022-08-30T12:44:56;22.13;;;3.03;;
62058;SDS011;48017;51.064;7.014;2022-08-30T12:47:30;7.60;;;2.30;;
62058;SDS011;48017;51.064;7.014;2022-08-30T12:50:19;13.98;;;5.15;;
62058;SDS011;48017;51.064;7.014;2022-08-30T12:53:11;8.35;;;3.00;;
62058;SDS011;48017;51.064;7.014;2022-08-30T13:06:58;6.32;;;2.20;;
62058;SDS011;48017;51.064;7.014;2022-08-30T13:12:08;6.57;;;1.95;;
62058;SDS011;48017;51.064;7.014;2022-08-30T13:14:44;6.25;;;2.40;;
62058;SDS011;48017;51.064;7.014;2022-08-30T13:19:55;8.57;;;1.98;;
62058;SDS011;48017;51.064;7.014;2022-08-30T13:24:52;5.50;;;2.28;;
62058;SDS011;48017;51.064;7.014;2022-08-30T13:27:18;6.63;;;2.35;;
62058;SDS011;48017;51.064;7.014;2022-08-30T13:29:44;4.85;;;2.00;;
62058;SDS011;48017;51.064;7.014;2022-08-30T13:32:10;7.55;;;3.80;;
62058;SDS011;48017;51.064;7.014;2022-08-30T13:34:37;11.40;;;3.47;;
62058;SDS011;48017;51.064;7.014;2022-08-30T13:37:03;11.63;;;4.38;;
62058;SDS011;48017;51.064;7.014;2022-08-30T13:39:29;11.85;;;3.80;;
62058;SDS011;48017;51.064;7.014;2022-08-30T13:41:54;5.03;;;2.20;;
62058;SDS011;48017;51.064;7.014;2022-08-30T13:44:20;8.50;;;2.40;;
62058;SDS011;48017;51.064;7.014;2022-08-30T13:46:47;4.20;;;2.10;;
62058;SDS011;48017;51.064;7.014;2022-08-30T13:49:20;7.68;;;2.20;;
62058;SDS011;48017;51.064;7.014;2022-08-30T13:51:46;5.68;;;2.20;;
62058;SDS011;48017;51.064;7.014;2022-08-30T13:54:12;5.90;;;2.40;;
62058;SDS011;48017;51.064;7.014;2022-08-30T13:56:38;9.88;;;2.30;;
62058;SDS011;48017;51.064;7.014;2022-08-30T13:59:04;6.30;;;2.53;;
62058;SDS011;48017;51.064;7.014;2022-08-30T14:01:29;4.00;;;2.00;;
62058;SDS011;48017;51.064;7.014;2022-08-30T14:03:55;7.78;;;2.78;;
62058;SDS011;48017;51.064;7.014;2022-08-30T14:06:21;6.63;;;2.40;;
62058;SDS011;48017;51.064;7.014;2022-08-30T14:08:46;9.52;;;2.20;;
62058;SDS011;48017;51.064;7.014;2022-08-30T14:11:12;7.35;;;3.35;;
62058;SDS011;48017;51.064;7.014;2022-08-30T14:13:40;7.93;;;4.95;;
62058;SDS011;48017;51.064;7.014;2022-08-30T14:16:09;10.88;;;3.42;;
62058;SDS011;48017;51.064;7.014;2022-08-30T14:18:34;7.57;;;2.30;;
62058;SDS011;48017;51.064;7.014;2022-08-30T14:21:00;5.90;;;2.38;;
62058;SDS011;48017;51.064;7.014;2022-08-30T14:23:25;13.20;;;3.60;;
62058;SDS011;48017;51.064;7.014;2022-08-30T14:25:52;10.25;;;3.05;;
62058;SDS011;48017;51.064;7.014;2022-08-30T14:28:18;12.23;;;2.28;;
62058;SDS011;48017;51.064;7.014;2022-08-30T14:30:44;6.10;;;2.40;;
62058;SDS011;48017;51.064;7.014;2022-08-30T14:33:10;15.38;;;2.60;;
62058;SDS011;48017;51.064;7.014;2022-08-30T14:35:36;6.68;;;2.25;;
62058;SDS011;48017;51.064;7.014;2022-08-30T14:38:01;20.00;;;2.20;;
62058;SDS011;48017;51.064;7.014;2022-08-30T14:40:27;6.40;;;2.20;;
62058;SDS011;48017;51.064;7.014;2022-08-30T14:42:52;6.57;;;2.47;;
62058;SDS011;48017;51.064;7.014;2022-08-30T14:45:18;7.30;;;2.70;;
62058;SDS011;48017;51.064;7.014;2022-08-30T14:47:43;7.55;;;2.08;;
62058;SDS011;48017;51.064;7.014;2022-08-30T14:50:09;6.93;;;2.03;;
62058;SDS011;48017;51.064;7.014;2022-08-30T14:52:35;6.85;;;2.40;;
62058;SDS011;48017;51.064;7.014;2022-08-30T14:55:00;6.80;;;2.25;;
62058;SDS011;48017;51.064;7.014;2022-08-30T14:57:27;9.60;;;2.30;;
62058;SDS011;48017;51.064;7.014;2022-08-30T14:59:53;4.50;;;2.40;;
62058;SDS011;48017;51.064;7.014;2022-08-30T15:02:18;4.07;;;2.15;;
62058;SDS011;48017;51.064;7.014;2022-08-30T15:04:44;10.15;;;2.47;;
62058;SDS011;48017;51.064;7.014;2022-08-30T15:07:09;5.95;;;2.20;;
62058;SDS011;48017;51.064;7.014;2022-08-30T15:09:34;5.53;;;2.10;;
62058;SDS011;48017;51.064;7.014;2022-08-30T15:12:00;7.78;;;2.33;;
62058;SDS011;48017;51.064;7.014;2022-08-30T15:14:27;8.60;;;2.20;;
62058;SDS011;48017;51.064;7.014;2022-08-30T15:16:55;6.57;;;2.00;;
62058;SDS011;48017;51.064;7.014;2022-08-30T15:19:22;8.20;;;2.20;;
62058;SDS011;48017;51.064;7.014;2022-08-30T15:21:48;4.43;;;2.00;;
62058;SDS011;48017;51.064;7.014;2022-08-30T15:24:15;5.30;;;2.10;;
62058;SDS011;48017;51.064;7.014;2022-08-30T15:26:43;7.63;;;2.45;;
62058;SDS011;48017;51.064;7.014;2022-08-30T15:29:09;15.23;;;3.13;;
62058;SDS011;48017;51.064;7.014;2022-08-30T15:31:36;9.05;;;3.53;;
62058;SDS011;48017;51.064;7.014;2022-08-30T15:34:04;11.38;;;4.07;;
62058;SDS011;48017;51.064;7.014;2022-08-30T15:36:31;6.40;;;3.15;;
62058;SDS011;48017;51.064;7.014;2022-08-30T15:38:56;9.43;;;2.20;;
62058;SDS011;48017;51.064;7.014;2022-08-30T15:41:23;5.68;;;2.10;;
62058;SDS011;48017;51.064;7.014;2022-08-30T15:43:50;4.10;;;2.30;;
62058;SDS011;48017;51.064;7.014;2022-08-30T15:46:21;10.80;;;2.60;;
62058;SDS011;48017;51.064;7.014;2022-08-30T15:48:47;5.65;;;2.30;;
62058;SDS011;48017;51.064;7.014;2022-08-30T15:51:13;5.67;;;2.10;;
62058;SDS011;48017;51.064;7.014;2022-08-30T15:53:40;6.30;;;2.45;;
62058;SDS011;48017;51.064;7.014;2022-08-30T15:56:06;6.85;;;2.25;;
62058;SDS011;48017;51.064;7.014;2022-08-30T15:58:32;10.70;;;2.40;;
62058;SDS011;48017;51.064;7.014;2022-08-30T16:00:57;5.43;;;2.40;;
62058;SDS011;48017;51.064;7.014;2022-08-30T16:03:22;6.85;;;2.60;;
62058;SDS011;48017;51.064;7.014;2022-08-30T16:05:48;6.63;;;2.28;;
62058;SDS011;48017;51.064;7.014;2022-08-30T16:08:13;4.50;;;2.50;;
62058;SDS011;48017;51.064;7.014;2022-08-30T16:10:39;17.38;;;2.88;;
62058;SDS011;48017;51.064;7.014;2022-08-30T16:13:04;5.50;;;2.42;;
62058;SDS011;48017;51.064;7.014;2022-08-30T16:15:30;5.95;;;2.03;;
62058;SDS011;48017;51.064;7.014;2022-08-30T16:17:55;5.28;;;2.30;;
62058;SDS011;48017;51.064;7.014;2022-08-30T16:20:21;9.05;;;2.20;;
62058;SDS011;48017;51.064;7.014;2022-08-30T16:22:46;6.55;;;2.30;;
62058;SDS011;48017;51.064;7.014;2022-08-30T16:25:12;8.18;;;2.20;;
62058;SDS011;48017;51.064;7.014;2022-08-30T16:27:37;6.32;;;2.30;;
62058;SDS011;48017;51.064;7.014;2022-08-30T16:30:07;4.25;;;2.05;;
62058;SDS011;48017;51.064;7.014;2022-08-30T16:32:34;4.00;;;2.13;;
62058;SDS011;48017;51.064;7.014;2022-08-30T16:35:00;5.03;;;2.35;;
62058;SDS011;48017;51.064;7.014;2022-08-30T16:37:25;6.53;;;2.20;;
62058;SDS011;48017;51.064;7.014;2022-08-30T16:39:50;10.15;;;2.40;;
62058;SDS011;48017;51.064;7.014;2022-08-30T16:42:16;8.13;;;2.50;;
62058;SDS011;48017;51.064;7.014;2022-08-30T16:44:41;3.33;;;2.28;;
62058;SDS011;48017;51.064;7.014;2022-08-30T16:47:07;5.32;;;2.03;;
62058;SDS011;48017;51.064;7.014;2022-08-30T16:49:32;7.15;;;2.13;;
62058;SDS011;48017;51.064;7.014;2022-08-30T16:51:57;7.05;;;2.30;;
62058;SDS011;48017;51.064;7.014;2022-08-30T16:54:23;4.90;;;2.10;;
62058;SDS011;48017;51.064;7.014;2022-08-30T16:56:48;7.28;;;2.30;;